Lode — SFC9613 — position and weather

sailwx.info

Track history (hours):
 
Tides and Currents Weather Stations Pressure Air Temp Water Temp Dewpoint Dewpoint Depression Visibility Wind Speed Wind Dir Waves Ship Positions

Lode

Last reported at 2015-Apr-19 18:33 UTC. Time now 2015-Apr-19 19:09 UTC.
Position N 59°18' E 017°59'.

Length 11 m.

Type: Dredging. MMSI: 265680440.

Date/timePositionNaut miles runAvg speedWind from/ knotsBaromVisibWave heightAir tempDewpointWater temp
2015-Apr-19 18:33N 59°18' E 017°59'0 0.0
2015-Apr-19 17:33N 59°18' E 017°59'0 0.0
2015-Apr-19 16:33N 59°18' E 017°59'0 0.0
2015-Apr-19 15:33N 59°18' E 017°59'0 0.0
2015-Apr-19 14:33N 59°18' E 017°59'0 0.0
2015-Apr-19 13:33N 59°18' E 017°59'0 0.0
2015-Apr-19 12:33N 59°18' E 017°59'0 0.0
2015-Apr-19 11:33N 59°18' E 017°59'0 0.0
2015-Apr-19 10:33N 59°18' E 017°59'0 0.0
2015-Apr-19 09:33N 59°18' E 017°59'0 0.0
2015-Apr-19 08:33N 59°18' E 017°59'0 0.0
2015-Apr-19 07:33N 59°18' E 017°59'0 0.0
2015-Apr-19 06:33N 59°18' E 017°59'0 0.0
2015-Apr-19 05:33N 59°18' E 017°59'0 0.0
2015-Apr-19 04:33N 59°18' E 017°59'0 0.0
2015-Apr-19 03:33N 59°18' E 017°59'0 0.0
2015-Apr-19 02:33N 59°18' E 017°59'0 0.0
2015-Apr-19 01:33N 59°18' E 017°59'0 0.0
2015-Apr-19 00:33N 59°18' E 017°59'0 0.0
2015-Apr-18 23:33N 59°18' E 017°59'0 0.0
2015-Apr-18 22:30N 59°18' E 017°59'0 0.0
2015-Apr-18 21:33N 59°18' E 017°59'0 0.0
2015-Apr-18 20:33N 59°18' E 017°59'0 0.0
2015-Apr-18 19:33N 59°18' E 017°59'0 0.0
2015-Apr-18 18:33N 59°18' E 017°59'0 0.0
2015-Apr-18 17:33N 59°18' E 017°59'0 0.0
2015-Apr-18 16:33N 59°18' E 017°59'0 0.0
2015-Apr-18 15:33N 59°18' E 017°59'0 0.0
2015-Apr-18 14:33N 59°18' E 017°58'0 0.0
2015-Apr-18 13:33N 59°18' E 017°59'0 0.0
2015-Apr-18 12:33N 59°18' E 017°59'0 0.0
2015-Apr-18 11:33N 59°18' E 017°59'0 0.0
2015-Apr-18 10:33N 59°18' E 017°59'0 0.0
2015-Apr-18 09:33N 59°18' E 017°59'0 0.0
2015-Apr-18 08:33N 59°18' E 017°59'0 0.0
2015-Apr-18 07:33N 59°18' E 017°59'0 0.0
2015-Apr-18 06:33N 59°18' E 017°59'0 0.0
2015-Apr-18 05:33N 59°18' E 017°59'0 0.0
2015-Apr-18 04:33N 59°18' E 017°59'0 0.0
2015-Apr-18 03:30N 59°18' E 017°59'0 0.0
2015-Apr-18 02:33N 59°18' E 017°59'0 0.0
2015-Apr-18 01:33N 59°18' E 017°59'0 0.0
2015-Apr-18 00:33N 59°18' E 017°59'0 0.0
2015-Apr-17 23:30N 59°18' E 017°59'0 0.0
2015-Apr-17 22:33N 59°18' E 017°59'0 0.0
2015-Apr-17 21:33N 59°18' E 017°59'0 0.0
2015-Apr-17 20:33N 59°18' E 017°59'0 0.0
2015-Apr-17 19:33N 59°18' E 017°59'0 0.0
2015-Apr-17 18:33N 59°18' E 017°59'0 0.0
2015-Apr-17 17:33N 59°18' E 017°59'0 0.0
2015-Apr-17 16:34N 59°18' E 017°59'0 0.0
2015-Apr-17 15:34N 59°18' E 017°59'0 0.0
2015-Apr-17 14:34N 59°18' E 017°59'0 0.0
2015-Apr-17 13:34N 59°18' E 017°59'0 0.0
2015-Apr-17 12:31N 59°18' E 017°59'1 0.1
2015-Apr-17 06:17N 59°19' E 017°57'5 6.5
2015-Apr-17 05:33N 59°19' E 018°06'3 0.1
2015-Apr-15 10:28N 59°20' E 018°12'3 3.2
2015-Apr-15 09:24N 59°22' E 018°06'0 0.1
2015-Apr-15 08:27N 59°22' E 018°06'0 0.1
2015-Apr-15 07:28N 59°22' E 018°06'2 0.0
2015-Apr-13 13:05N 59°21' E 018°09'2 3.1
2015-Apr-13 12:33N 59°22' E 018°06'0 0.0
2015-Apr-13 11:30N 59°22' E 018°06'0 0.0
2015-Apr-13 08:29N 59°22' E 018°06'0 0.1
2015-Apr-13 07:28N 59°22' E 018°06'3 3.1
2015-Apr-13 06:25N 59°20' E 018°12'  
Track history (hours):
 
Tides and Currents Weather Stations Pressure Air Temp Water Temp Dewpoint Dewpoint Depression Visibility Wind Speed Wind Dir Waves Ship Positions

Lode

Last reported at 2015-Apr-19 18:33 UTC. Time now 2015-Apr-19 19:09 UTC.
Position N 59°18' E 017°59'.

Length 11 m.

Type: Dredging. MMSI: 265680440.

Date/timePositionNaut miles runAvg speedWind from/ knotsBaromVisibWave heightAir tempDewpointWater temp
2015-Apr-19 18:33N 59°18' E 017°59'0 0.0
2015-Apr-19 17:33N 59°18' E 017°59'0 0.0
2015-Apr-19 16:33N 59°18' E 017°59'0 0.0
2015-Apr-19 15:33N 59°18' E 017°59'0 0.0
2015-Apr-19 14:33N 59°18' E 017°59'0 0.0
2015-Apr-19 13:33N 59°18' E 017°59'0 0.0
2015-Apr-19 12:33N 59°18' E 017°59'0 0.0
2015-Apr-19 11:33N 59°18' E 017°59'0 0.0
2015-Apr-19 10:33N 59°18' E 017°59'0 0.0
2015-Apr-19 09:33N 59°18' E 017°59'0 0.0
2015-Apr-19 08:33N 59°18' E 017°59'0 0.0
2015-Apr-19 07:33N 59°18' E 017°59'0 0.0
2015-Apr-19 06:33N 59°18' E 017°59'0 0.0
2015-Apr-19 05:33N 59°18' E 017°59'0 0.0
2015-Apr-19 04:33N 59°18' E 017°59'0 0.0
2015-Apr-19 03:33N 59°18' E 017°59'0 0.0
2015-Apr-19 02:33N 59°18' E 017°59'0 0.0
2015-Apr-19 01:33N 59°18' E 017°59'0 0.0
2015-Apr-19 00:33N 59°18' E 017°59'0 0.0
2015-Apr-18 23:33N 59°18' E 017°59'0 0.0
2015-Apr-18 22:30N 59°18' E 017°59'0 0.0
2015-Apr-18 21:33N 59°18' E 017°59'0 0.0
2015-Apr-18 20:33N 59°18' E 017°59'0 0.0
2015-Apr-18 19:33N 59°18' E 017°59'0 0.0
2015-Apr-18 18:33N 59°18' E 017°59'0 0.0
2015-Apr-18 17:33N 59°18' E 017°59'0 0.0
2015-Apr-18 16:33N 59°18' E 017°59'0 0.0
2015-Apr-18 15:33N 59°18' E 017°59'0 0.0
2015-Apr-18 14:33N 59°18' E 017°58'0 0.0
2015-Apr-18 13:33N 59°18' E 017°59'0 0.0
2015-Apr-18 12:33N 59°18' E 017°59'0 0.0
2015-Apr-18 11:33N 59°18' E 017°59'0 0.0
2015-Apr-18 10:33N 59°18' E 017°59'0 0.0
2015-Apr-18 09:33N 59°18' E 017°59'0 0.0
2015-Apr-18 08:33N 59°18' E 017°59'0 0.0
2015-Apr-18 07:33N 59°18' E 017°59'0 0.0
2015-Apr-18 06:33N 59°18' E 017°59'0 0.0
2015-Apr-18 05:33N 59°18' E 017°59'0 0.0
2015-Apr-18 04:33N 59°18' E 017°59'0 0.0
2015-Apr-18 03:30N 59°18' E 017°59'0 0.0
2015-Apr-18 02:33N 59°18' E 017°59'0 0.0
2015-Apr-18 01:33N 59°18' E 017°59'0 0.0
2015-Apr-18 00:33N 59°18' E 017°59'0 0.0
2015-Apr-17 23:30N 59°18' E 017°59'0 0.0
2015-Apr-17 22:33N 59°18' E 017°59'0 0.0
2015-Apr-17 21:33N 59°18' E 017°59'0 0.0
2015-Apr-17 20:33N 59°18' E 017°59'0 0.0
2015-Apr-17 19:33N 59°18' E 017°59'0 0.0
2015-Apr-17 18:33N 59°18' E 017°59'0 0.0
2015-Apr-17 17:33N 59°18' E 017°59'0 0.0
2015-Apr-17 16:34N 59°18' E 017°59'0 0.0
2015-Apr-17 15:34N 59°18' E 017°59'0 0.0
2015-Apr-17 14:34N 59°18' E 017°59'0 0.0
2015-Apr-17 13:34N 59°18' E 017°59'0 0.0
2015-Apr-17 12:31N 59°18' E 017°59'1 0.1
2015-Apr-17 06:17N 59°19' E 017°57'5 6.5
2015-Apr-17 05:33N 59°19' E 018°06'3 0.1
2015-Apr-15 10:28N 59°20' E 018°12'3 3.2
2015-Apr-15 09:24N 59°22' E 018°06'0 0.1
2015-Apr-15 08:27N 59°22' E 018°06'0 0.1
2015-Apr-15 07:28N 59°22' E 018°06'2 0.0
2015-Apr-13 13:05N 59°21' E 018°09'2 3.1
2015-Apr-13 12:33N 59°22' E 018°06'0 0.0
2015-Apr-13 11:30N 59°22' E 018°06'0 0.0
2015-Apr-13 08:29N 59°22' E 018°06'0 0.1
2015-Apr-13 07:28N 59°22' E 018°06'3 3.1
2015-Apr-13 06:25N 59°20' E 018°12'  

Dump ship's entire track history